createdAt,value
2022-09-01T00:25:43.627Z,22
2022-09-01T00:54:51.773Z,22
2022-09-01T01:24:00.140Z,26
2022-09-01T01:53:11.759Z,25
2022-09-01T02:21:45.923Z,24
2022-09-01T02:50:59.375Z,24
2022-09-01T03:20:11.711Z,26
2022-09-01T03:49:26.900Z,31
2022-09-01T04:18:33.823Z,29
2022-09-01T04:47:45.095Z,33
2022-09-01T05:16:56.320Z,33
2022-09-01T05:46:07.663Z,32
2022-09-01T06:15:03.520Z,29
2022-09-01T06:44:19.303Z,27
2022-09-01T07:13:38.918Z,26
2022-09-01T08:11:06.858Z,22
2022-09-01T08:39:34.467Z,20
2022-09-01T09:08:55.747Z,18
2022-09-01T09:38:06.250Z,13
2022-09-01T10:07:19.434Z,13
2022-09-01T10:36:08.022Z,10
2022-09-01T11:04:56.956Z,10
2022-09-01T11:33:55.430Z,10
2022-09-01T12:03:14.438Z,7
2022-09-01T12:32:06.095Z,7
2022-09-01T13:01:03.567Z,8
2022-09-01T13:30:05.613Z,6
2022-09-01T13:59:12.120Z,7
2022-09-01T14:28:22.652Z,7
2022-09-01T14:57:31.766Z,6
2022-09-01T15:25:46.966Z,5
2022-09-01T15:54:55.516Z,7
2022-09-01T16:24:05.210Z,5
2022-09-01T16:52:35.667Z,13
2022-09-01T17:21:28.316Z,6
2022-09-01T17:50:17.899Z,7
2022-09-01T18:19:22.626Z,9
2022-09-01T18:48:25.140Z,15
2022-09-01T19:17:25.669Z,10
2022-09-01T19:46:32.537Z,10
2022-09-01T20:15:32.024Z,10
2022-09-01T20:44:40.812Z,10
2022-09-01T21:13:56.460Z,11
